Time;durP1;ratioP1;P1;durP2;ratioP2;P2;SDS_P1;SDS_P2;PMS_P1;PMS_P2;Temp;Humidity;BMP_temperature;BMP_pressure;BME280_temperature;BME280_humidity;BME280_pressure;Samples;Min_cycle;Max_cycle;Signal;HPM_P1;HPM_P2
2023/09/10 00:00:34;;;;;;;11.00;10.00;;;20.30;99.90;;;;;;4917356;29;20182;-71
2023/09/10 00:03:00;;;;;;;11.50;10.40;;;20.30;99.90;;;;;;4917114;29;20856;-71
2023/09/10 00:05:26;;;;;;;11.90;10.80;;;20.20;99.90;;;;;;4917735;29;20486;-72
2023/09/10 00:07:52;;;;;;;10.60;9.60;;;20.20;99.90;;;;;;4917066;29;20184;-71
2023/09/10 00:10:18;;;;;;;11.37;10.23;;;20.10;99.90;;;;;;4917434;29;20698;-72
2023/09/10 00:12:44;;;;;;;12.03;10.80;;;20.00;99.90;;;;;;4916943;29;20441;-70
2023/09/10 00:15:09;;;;;;;11.83;10.10;;;20.00;99.90;;;;;;4917048;29;20739;-72
2023/09/10 00:17:35;;;;;;;12.00;10.90;;;20.00;99.90;;;;;;4917138;29;20578;-71
2023/09/10 00:20:01;;;;;;;11.40;10.10;;;20.10;99.90;;;;;;4917093;29;20835;-71
2023/09/10 00:22:26;;;;;;;11.43;10.23;;;20.10;99.90;;;;;;4916940;29;20201;-71
2023/09/10 00:24:52;;;;;;;11.87;10.30;;;20.10;99.90;;;;;;4916785;29;20179;-72
2023/09/10 00:27:18;;;;;;;10.40;9.40;;;19.90;99.90;;;;;;4916853;29;20184;-70
2023/09/10 00:29:43;;;;;;;14.33;11.37;;;19.80;99.90;;;;;;4917082;29;20666;-72
2023/09/10 00:32:09;;;;;;;12.40;11.30;;;19.80;99.90;;;;;;4916469;29;20241;-71
2023/09/10 00:34:34;;;;;;;14.17;11.07;;;19.80;99.90;;;;;;4916715;29;20199;-72
2023/09/10 00:37:01;;;;;;;12.20;10.97;;;19.80;99.90;;;;;;4916451;29;20203;-71
2023/09/10 00:39:26;;;;;;;11.90;10.80;;;19.70;99.90;;;;;;4916484;29;20193;-72
2023/09/10 00:41:55;;;;;;;13.30;10.07;;;19.70;99.90;;;;;;4916157;29;20422;-71
2023/09/10 00:44:23;;;;;;;12.40;11.17;;;19.60;99.90;;;;;;4916368;29;20190;-72
2023/09/10 00:46:52;;;;;;;12.53;10.60;;;19.60;99.90;;;;;;4916684;29;20797;-70
2023/09/10 00:49:19;;;;;;;11.23;10.23;;;19.50;99.90;;;;;;4916437;29;20693;-71
2023/09/10 00:51:46;;;;;;;12.27;11.10;;;19.50;99.90;;;;;;4916626;29;20433;-73
2023/09/10 00:54:13;;;;;;;11.77;10.20;;;19.50;99.90;;;;;;4900753;29;20499;-73
2023/09/10 00:56:39;;;;;;;12.47;11.33;;;19.40;99.90;;;;;;4916278;29;20514;-71
2023/09/10 00:59:05;;;;;;;12.10;10.90;;;19.40;99.90;;;;;;4916194;29;20424;-72
2023/09/10 01:01:30;;;;;;;12.80;11.60;;;19.30;99.90;;;;;;4916211;29;20183;-71
2023/09/10 01:03:56;;;;;;;11.03;9.93;;;19.20;99.90;;;;;;4916045;29;20196;-71
2023/09/10 01:06:22;;;;;;;12.13;10.83;;;19.20;99.90;;;;;;4916038;29;20177;-72
2023/09/10 01:08:48;;;;;;;12.27;11.00;;;19.20;99.90;;;;;;4915988;29;20271;-72
2023/09/10 01:11:25;;;;;;;13.87;12.43;;;19.20;99.90;;;;;;4915934;29;20211;-72
2023/09/10 01:14:17;;;;;;;12.80;11.70;;;19.10;99.90;;;;;;4915935;29;20730;-72
2023/09/10 01:16:47;;;;;;;10.97;9.97;;;19.00;99.90;;;;;;4915959;29;20537;-72
2023/09/10 01:19:43;;;;;;;12.43;11.17;;;18.90;99.90;;;;;;4915820;29;20904;-72
2023/09/10 01:22:12;;;;;;;12.87;11.60;;;18.80;99.90;;;;;;4915590;29;20461;-70
2023/09/10 01:24:54;;;;;;;12.63;11.37;;;18.70;99.90;;;;;;4915763;29;20414;-72
2023/09/10 01:27:20;;;;;;;13.00;11.80;;;18.70;99.90;;;;;;4915837;29;20426;-72
2023/09/10 01:29:45;;;;;;;12.20;11.10;;;18.70;99.90;;;;;;4915687;29;20423;-71
2023/09/10 01:32:23;;;;;;;15.03;11.60;;;18.60;99.90;;;;;;4914954;29;20213;-71
2023/09/10 01:34:55;;;;;;;12.73;11.40;;;18.60;99.90;;;;;;4915692;29;20252;-72
2023/09/10 01:37:40;;;;;;;13.37;12.07;;;18.60;99.90;;;;;;4915663;29;20501;-71
2023/09/10 01:40:09;;;;;;;13.03;11.83;;;18.70;99.90;;;;;;4905765;29;20455;-71
2023/09/10 01:42:35;;;;;;;16.70;13.93;;;18.60;99.90;;;;;;4915466;29;20442;-71
2023/09/10 01:45:02;;;;;;;13.77;12.30;;;18.60;99.90;;;;;;4915429;29;20509;-72
2023/09/10 01:47:28;;;;;;;13.57;12.10;;;18.50;99.90;;;;;;4915799;29;20434;-71
2023/09/10 01:49:54;;;;;;;12.43;11.23;;;18.50;99.90;;;;;;4915362;29;20795;-71
2023/09/10 01:52:20;;;;;;;13.10;11.80;;;18.40;99.90;;;;;;4915348;29;20205;-70
2023/09/10 01:54:45;;;;;;;13.37;11.97;;;18.60;99.90;;;;;;4915444;29;20189;-71
2023/09/10 01:57:12;;;;;;;14.33;11.80;;;18.60;99.90;;;;;;4915363;29;20544;-72
2023/09/10 01:59:37;;;;;;;12.90;11.70;;;18.60;99.90;;;;;;4915318;29;20175;-72
2023/09/10 02:02:03;;;;;;;12.90;11.63;;;18.60;99.90;;;;;;4915105;29;20433;-71
2023/09/10 02:04:28;;;;;;;12.80;11.60;;;18.60;99.90;;;;;;4915439;29;20172;-71
2023/09/10 02:06:54;;;;;;;13.97;12.67;;;18.60;99.90;;;;;;4915280;29;20174;-71
2023/09/10 02:09:20;;;;;;;12.70;11.50;;;18.70;99.90;;;;;;4915308;29;20298;-72
2023/09/10 02:11:45;;;;;;;13.77;12.47;;;18.70;99.90;;;;;;4915408;29;20172;-71
2023/09/10 02:14:11;;;;;;;15.43;13.93;;;18.60;99.90;;;;;;4915027;29;20248;-71
2023/09/10 02:16:36;;;;;;;12.70;11.50;;;18.60;99.90;;;;;;4915266;29;20251;-71
2023/09/10 02:19:03;;;;;;;14.33;12.93;;;18.60;99.90;;;;;;4915168;29;20257;-71
2023/09/10 02:21:29;;;;;;;13.93;12.60;;;18.60;99.90;;;;;;4915571;29;20548;-71
2023/09/10 02:23:54;;;;;;;14.80;12.97;;;18.60;99.90;;;;;;4915112;29;20436;-72
2023/09/10 02:26:20;;;;;;;13.43;12.13;;;18.60;99.90;;;;;;4915366;29;20278;-73
2023/09/10 02:28:45;;;;;;;15.33;13.60;;;18.50;99.90;;;;;;4915187;29;20185;-72
2023/09/10 02:31:11;;;;;;;14.87;13.23;;;18.50;99.90;;;;;;4915040;29;20193;-72
2023/09/10 02:33:36;;;;;;;13.73;12.33;;;18.50;99.90;;;;;;4936228;23;20309;-68
2023/09/10 02:36:03;;;;;;;16.80;13.00;;;18.40;99.90;;;;;;4923758;29;20274;-69
2023/09/10 02:38:29;;;;;;;15.87;14.00;;;18.40;99.90;;;;;;4933628;29;20546;-67
2023/09/10 02:40:55;;;;;;;14.90;13.27;;;18.40;99.90;;;;;;4933544;29;20411;-69
2023/09/10 02:43:21;;;;;;;15.00;13.47;;;18.50;99.90;;;;;;4934174;29;20474;-66
2023/09/10 02:45:47;;;;;;;13.47;12.27;;;18.40;99.90;;;;;;4918440;29;20414;-68
2023/09/10 02:48:13;;;;;;;13.10;12.00;;;18.20;99.90;;;;;;4918054;29;20425;-68
2023/09/10 02:50:39;;;;;;;15.53;12.57;;;18.20;99.90;;;;;;4918058;29;20832;-69
2023/09/10 02:53:04;;;;;;;12.70;11.50;;;18.20;99.90;;;;;;4917765;29;20184;-70
2023/09/10 02:55:30;;;;;;;13.70;12.40;;;18.20;99.90;;;;;;4918018;29;20447;-70
2023/09/10 02:57:55;;;;;;;15.40;13.90;;;18.20;99.90;;;;;;4917937;29;20655;-70
2023/09/10 03:00:25;;;;;;;15.37;13.77;;;18.20;99.90;;;;;;4917830;29;20175;-67
2023/09/10 03:02:55;;;;;;;14.80;13.30;;;18.20;99.90;;;;;;4917898;29;20645;-68
2023/09/10 03:05:20;;;;;;;18.10;12.90;;;18.10;99.90;;;;;;4917810;29;20806;-68
2023/09/10 03:07:46;;;;;;;14.93;13.43;;;18.10;99.90;;;;;;4917739;29;20421;-68
2023/09/10 03:10:12;;;;;;;15.50;13.30;;;18.10;99.90;;;;;;4917662;29;20412;-68
2023/09/10 03:12:37;;;;;;;14.20;12.90;;;18.10;99.90;;;;;;4917588;29;20237;-68
2023/09/10 03:15:03;;;;;;;14.50;13.27;;;18.10;99.90;;;;;;4917436;29;20266;-68
2023/09/10 03:17:29;;;;;;;14.20;12.90;;;18.10;99.90;;;;;;4917589;29;20571;-67
2023/09/10 03:19:55;;;;;;;15.63;14.10;;;18.10;99.90;;;;;;4917558;29;20422;-68
2023/09/10 03:22:20;;;;;;;19.93;13.00;;;18.10;99.90;;;;;;4917525;29;20258;-68
2023/09/10 03:24:46;;;;;;;15.17;13.50;;;18.00;99.90;;;;;;4917883;29;20646;-69
2023/09/10 03:27:11;;;;;;;14.33;13.00;;;18.00;99.90;;;;;;4917486;29;20178;-68
2023/09/10 03:29:37;;;;;;;14.33;13.03;;;18.00;99.90;;;;;;4917267;29;20670;-68
2023/09/10 03:32:06;;;;;;;15.43;13.93;;;18.00;99.90;;;;;;4917345;29;20209;-69
2023/09/10 03:34:32;;;;;;;14.27;12.93;;;18.00;99.90;;;;;;4916958;29;20208;-67
2023/09/10 03:36:58;;;;;;;14.37;12.97;;;18.00;99.90;;;;;;4917070;29;20462;-69
2023/09/10 03:39:24;;;;;;;14.00;12.60;;;17.90;99.90;;;;;;4917079;29;20514;-68
2023/09/10 03:41:51;;;;;;;16.40;14.87;;;17.90;99.90;;;;;;4916870;29;20181;-69
2023/09/10 03:44:17;;;;;;;15.70;14.00;;;17.90;99.90;;;;;;4916874;29;20811;-69
2023/09/10 03:46:43;;;;;;;15.37;13.77;;;18.00;99.90;;;;;;4917139;29;20426;-69
2023/09/10 03:49:08;;;;;;;16.87;14.33;;;17.90;99.90;;;;;;4917403;29;20187;-69
2023/09/10 03:51:34;;;;;;;18.33;14.63;;;18.00;99.90;;;;;;4917711;29;20179;-68
2023/09/10 03:54:00;;;;;;;13.33;12.13;;;18.00;99.90;;;;;;4916386;29;20193;-69
2023/09/10 03:56:25;;;;;;;14.30;13.00;;;17.90;99.90;;;;;;4916784;29;20200;-69
2023/09/10 03:58:51;;;;;;;14.70;13.30;;;17.70;99.90;;;;;;4916949;29;20562;-69
2023/09/10 04:01:16;;;;;;;15.27;13.83;;;17.60;99.90;;;;;;4916823;29;20674;-68
2023/09/10 04:03:42;;;;;;;15.73;13.00;;;17.60;99.90;;;;;;4916595;29;20200;-69
2023/09/10 04:06:07;;;;;;;15.07;13.63;;;17.60;99.90;;;;;;4916557;29;20374;-69
2023/09/10 04:08:33;;;;;;;15.23;13.73;;;17.60;99.90;;;;;;4916591;29;20191;-69
2023/09/10 04:10:59;;;;;;;14.20;12.80;;;17.60;99.90;;;;;;4916462;29;20261;-69
2023/09/10 04:13:25;;;;;;;15.77;14.27;;;17.60;99.90;;;;;;4916334;29;20272;-68
2023/09/10 04:15:51;;;;;;;15.20;13.63;;;17.50;99.90;;;;;;4916476;29;20282;-69
2023/09/10 04:18:16;;;;;;;14.77;13.57;;;17.50;99.90;;;;;;4916635;29;20902;-69
2023/09/10 04:20:42;;;;;;;15.13;13.63;;;17.50;99.90;;;;;;4916543;29;20174;-69
2023/09/10 04:23:07;;;;;;;16.00;14.37;;;17.60;99.90;;;;;;4916319;29;20536;-69
2023/09/10 04:25:33;;;;;;;16.60;14.93;;;17.50;99.90;;;;;;4916211;29;20254;-69
2023/09/10 04:27:58;;;;;;;16.87;15.27;;;17.50;99.90;;;;;;4916305;29;20643;-68
2023/09/10 04:30:24;;;;;;;17.03;15.43;;;17.40;99.90;;;;;;4916581;29;20187;-69
2023/09/10 04:32:50;;;;;;;16.33;14.37;;;17.40;99.90;;;;;;4916195;29;20218;-69
2023/09/10 04:35:16;;;;;;;16.97;15.40;;;17.50;99.90;;;;;;4915916;29;20215;-69
2023/09/10 04:37:42;;;;;;;17.27;15.57;;;17.50;99.90;;;;;;4916363;29;20215;-70
2023/09/10 04:40:08;;;;;;;17.40;15.50;;;17.60;99.90;;;;;;4916069;29;20503;-70
2023/09/10 04:42:34;;;;;;;15.63;14.13;;;17.70;99.90;;;;;;4916225;29;20226;-69
2023/09/10 04:45:01;;;;;;;16.70;15.07;;;17.70;99.90;;;;;;4916216;29;20910;-70
2023/09/10 04:47:26;;;;;;;16.50;14.73;;;17.70;99.90;;;;;;4915986;29;20457;-68
2023/09/10 04:49:52;;;;;;;15.37;13.77;;;17.70;99.90;;;;;;4916169;29;20478;-72
2023/09/10 04:52:17;;;;;;;16.20;14.60;;;17.60;99.90;;;;;;4915966;29;20186;-70
2023/09/10 04:54:43;;;;;;;14.90;13.53;;;17.50;99.90;;;;;;4915785;29;20672;-72
2023/09/10 04:57:12;;;;;;;18.50;15.80;;;17.50;99.90;;;;;;4916531;29;20198;-74
2023/09/10 04:59:37;;;;;;;19.83;15.50;;;17.50;99.90;;;;;;4915864;29;20183;-72
2023/09/10 05:02:04;;;;;;;15.83;14.30;;;17.50;99.90;;;;;;4915638;29;20418;-69
2023/09/10 05:04:30;;;;;;;16.57;12.43;;;17.50;99.90;;;;;;4914903;29;20200;-73
2023/09/10 05:06:57;;;;;;;14.00;12.77;;;17.50;99.90;;;;;;4914003;29;20990;-73
2023/09/10 05:09:23;;;;;;;15.30;13.80;;;17.50;99.90;;;;;;4915505;29;20426;-71
2023/09/10 05:11:48;;;;;;;14.73;13.23;;;17.50;99.90;;;;;;4915836;29;20428;-71
2023/09/10 05:14:14;;;;;;;14.50;13.10;;;17.50;99.90;;;;;;4915523;29;20678;-70
2023/09/10 05:16:39;;;;;;;14.13;12.93;;;17.50;99.90;;;;;;4915843;29;20258;-69
2023/09/10 05:19:06;;;;;;;19.90;14.90;;;17.50;99.90;;;;;;4908176;29;20173;-71
2023/09/10 05:21:31;;;;;;;16.63;14.90;;;17.60;99.90;;;;;;4903452;29;20192;-71
2023/09/10 05:23:57;;;;;;;15.83;14.23;;;17.70;99.90;;;;;;4905814;29;20525;-71
2023/09/10 05:26:22;;;;;;;13.63;12.23;;;17.70;99.90;;;;;;4914335;29;20184;-70
2023/09/10 05:28:48;;;;;;;16.00;14.00;;;17.80;99.90;;;;;;4907388;29;20186;-71
2023/09/10 05:31:13;;;;;;;16.27;14.80;;;17.90;99.90;;;;;;4915240;29;20187;-70
2023/09/10 05:33:39;;;;;;;17.13;15.27;;;17.90;99.90;;;;;;4915195;29;20590;-71
2023/09/10 05:36:05;;;;;;;15.47;13.87;;;18.00;99.90;;;;;;4902948;29;20176;-70
2023/09/10 05:38:30;;;;;;;15.73;14.23;;;18.00;99.90;;;;;;4915391;29;20172;-70
2023/09/10 05:41:03;;;;;;;16.20;14.60;;;18.10;99.90;;;;;;4914984;29;20988;-71
2023/09/10 05:43:32;;;;;;;15.00;13.53;;;18.20;99.90;;;;;;4915261;29;20172;-72
2023/09/10 05:45:58;;;;;;;16.20;14.67;;;18.40;99.90;;;;;;4914763;29;20772;-71
2023/09/10 05:48:24;;;;;;;15.70;14.17;;;18.60;99.90;;;;;;4915065;29;20406;-72
2023/09/10 05:50:49;;;;;;;15.30;13.80;;;18.80;99.90;;;;;;4915146;29;20419;-71
2023/09/10 05:53:15;;;;;;;13.20;12.07;;;19.20;99.90;;;;;;4914833;29;20218;-70
2023/09/10 05:55:41;;;;;;;14.40;13.07;;;19.60;99.90;;;;;;4915113;29;20202;-70
2023/09/10 05:58:11;;;;;;;14.97;13.50;;;20.10;99.90;;;;;;4914686;29;20198;-72
2023/09/10 06:00:37;;;;;;;15.73;14.03;;;20.60;99.90;;;;;;4914920;29;20420;-70
2023/09/10 06:03:03;;;;;;;13.43;12.13;;;20.90;99.90;;;;;;4914934;29;20663;-68
2023/09/10 06:05:29;;;;;;;13.87;12.57;;;21.30;99.90;;;;;;4914815;29;20195;-71
2023/09/10 06:07:55;;;;;;;13.70;12.50;;;21.60;99.90;;;;;;4914872;29;20424;-69
2023/09/10 06:10:20;;;;;;;14.93;12.10;;;21.90;99.90;;;;;;4914725;29;20634;-69
2023/09/10 06:12:46;;;;;;;14.20;12.90;;;22.20;99.90;;;;;;4914905;29;20186;-71
2023/09/10 06:15:12;;;;;;;14.67;12.63;;;22.50;99.90;;;;;;4914650;29;20689;-71
2023/09/10 06:17:37;;;;;;;13.90;12.63;;;22.80;99.90;;;;;;4916457;29;20539;-71
2023/09/10 06:20:04;;;;;;;14.80;12.90;;;23.30;99.90;;;;;;4919149;29;20187;-70
2023/09/10 06:22:29;;;;;;;15.77;14.27;;;23.60;99.90;;;;;;4918802;29;20186;-70
2023/09/10 06:24:55;;;;;;;13.70;12.60;;;23.90;99.90;;;;;;4918663;29;20501;-70
2023/09/10 06:27:21;;;;;;;13.40;12.10;;;24.30;99.90;;;;;;4918525;29;20583;-70
2023/09/10 06:29:46;;;;;;;13.80;12.53;;;24.40;99.90;;;;;;4918418;29;20182;-71
2023/09/10 06:32:12;;;;;;;13.17;11.97;;;24.50;99.90;;;;;;4918489;29;20179;-70
2023/09/10 06:34:38;;;;;;;16.23;12.50;;;24.50;99.90;;;;;;4918434;29;20283;-70
2023/09/10 06:37:05;;;;;;;13.53;12.30;;;24.90;99.90;;;;;;4918647;29;20226;-69
2023/09/10 06:39:32;;;;;;;14.60;13.37;;;25.20;99.90;;;;;;4918847;29;20642;-70
2023/09/10 06:41:58;;;;;;;14.77;13.37;;;25.30;99.90;;;;;;4919091;29;20426;-70
2023/09/10 06:44:23;;;;;;;14.70;13.07;;;25.10;99.90;;;;;;4918862;29;20435;-69
2023/09/10 06:46:49;;;;;;;15.20;13.70;;;25.10;99.90;;;;;;4918795;29;20669;-71
2023/09/10 06:49:14;;;;;;;14.03;11.83;;;24.90;99.90;;;;;;4918392;29;20183;-70
2023/09/10 06:51:40;;;;;;;13.33;12.23;;;25.30;99.90;;;;;;4918536;29;20175;-70
2023/09/10 06:54:06;;;;;;;11.97;10.73;;;25.70;99.90;;;;;;4918409;29;20199;-67
2023/09/10 06:56:31;;;;;;;12.27;11.13;;;26.10;99.90;;;;;;4918556;29;20281;-69
2023/09/10 06:58:57;;;;;;;11.83;10.90;;;26.40;99.90;;;;;;4918357;29;20352;-70
2023/09/10 07:01:22;;;;;;;13.00;11.90;;;26.50;99.90;;;;;;4918322;29;20705;-69
2023/09/10 07:03:55;;;;;;;11.30;10.47;;;26.80;99.90;;;;;;4918354;29;20662;-68
2023/09/10 07:06:20;;;;;;;11.70;10.60;;;26.90;99.90;;;;;;4918503;29;20191;-68
2023/09/10 07:08:46;;;;;;;11.77;10.77;;;26.90;99.90;;;;;;4918501;29;20766;-68
2023/09/10 07:11:11;;;;;;;12.07;10.97;;;27.10;99.90;;;;;;4918485;29;20211;-69
2023/09/10 07:13:37;;;;;;;12.10;10.93;;;27.50;99.90;;;;;;4917952;29;20231;-69
2023/09/10 07:16:03;;;;;;;11.23;9.80;;;27.50;99.90;;;;;;4918216;29;20183;-69
2023/09/10 07:18:33;;;;;;;11.80;10.80;;;27.60;99.90;;;;;;4917894;29;20574;-69
2023/09/10 07:21:00;;;;;;;11.70;10.60;;;27.80;99.90;;;;;;4918374;29;20448;-70
2023/09/10 07:23:26;;;;;;;12.40;10.93;;;27.60;99.90;;;;;;4918184;29;20420;-71
2023/09/10 07:25:51;;;;;;;15.30;11.00;;;27.80;99.90;;;;;;4918180;29;20418;-70
2023/09/10 07:28:17;;;;;;;10.63;9.63;;;28.50;99.90;;;;;;4917724;29;20419;-70
2023/09/10 07:30:42;;;;;;;11.73;10.63;;;29.20;99.90;;;;;;4917217;29;20175;-69
2023/09/10 07:33:08;;;;;;;9.20;8.37;;;28.60;99.90;;;;;;4917775;29;20191;-67
2023/09/10 07:35:34;;;;;;;10.80;9.60;;;28.70;99.90;;;;;;4917565;29;20214;-69
2023/09/10 07:37:59;;;;;;;9.90;9.17;;;29.00;99.90;;;;;;4917765;29;20206;-69
2023/09/10 07:40:25;;;;;;;9.67;8.83;;;29.10;99.90;;;;;;4917579;29;20661;-69
2023/09/10 07:42:51;;;;;;;9.87;9.07;;;30.20;99.90;;;;;;4917565;29;20508;-70
2023/09/10 07:45:16;;;;;;;10.00;9.00;;;31.20;98.80;;;;;;4917411;29;20196;-70
2023/09/10 07:47:42;;;;;;;8.43;7.73;;;30.10;99.90;;;;;;4917920;29;20504;-70
2023/09/10 07:50:08;;;;;;;9.47;8.67;;;30.00;99.60;;;;;;4917583;29;20175;-70
2023/09/10 07:52:34;;;;;;;9.90;9.10;;;30.10;99.00;;;;;;4917752;29;20171;-69
2023/09/10 07:54:59;;;;;;;8.97;8.20;;;29.60;99.90;;;;;;4917323;29;20965;-70
2023/09/10 07:57:25;;;;;;;9.33;8.63;;;30.00;99.50;;;;;;4917314;29;20202;-69
2023/09/10 07:59:51;;;;;;;9.70;8.90;;;30.50;98.50;;;;;;4917538;29;20623;-69
2023/09/10 08:02:17;;;;;;;9.60;8.60;;;31.30;97.50;;;;;;4917330;29;20251;-71
2023/09/10 08:04:43;;;;;;;9.63;8.87;;;32.50;95.50;;;;;;4917361;29;20965;-70
2023/09/10 08:07:10;;;;;;;10.33;8.40;;;30.90;97.40;;;;;;4917236;29;20179;-70
2023/09/10 08:09:37;;;;;;;8.60;7.90;;;32.00;95.50;;;;;;4917254;29;20833;-71
2023/09/10 08:12:03;;;;;;;12.63;8.47;;;32.80;94.10;;;;;;4915796;29;20430;-70
2023/09/10 08:14:29;;;;;;;8.23;7.63;;;32.60;93.00;;;;;;4916860;29;20446;-70
2023/09/10 08:16:55;;;;;;;8.40;7.60;;;31.20;94.50;;;;;;4917024;29;20459;-70
2023/09/10 08:19:20;;;;;;;8.70;7.90;;;30.50;96.30;;;;;;4917102;29;20929;-70
2023/09/10 08:21:46;;;;;;;9.20;7.70;;;31.70;95.30;;;;;;4917221;29;20176;-70
2023/09/10 08:24:12;;;;;;;8.17;7.47;;;33.30;92.30;;;;;;4916739;29;20195;-70
2023/09/10 08:26:37;;;;;;;8.10;7.37;;;31.50;92.80;;;;;;4917129;29;20211;-69
2023/09/10 08:29:03;;;;;;;7.80;7.10;;;31.20;92.90;;;;;;4916884;29;20274;-70
2023/09/10 08:31:28;;;;;;;6.70;6.20;;;31.80;92.10;;;;;;4916667;29;20266;-70
2023/09/10 08:33:54;;;;;;;8.70;7.40;;;30.20;93.00;;;;;;4916627;29;20211;-70
2023/09/10 08:36:20;;;;;;;10.40;9.37;;;31.50;91.80;;;;;;4913296;29;20211;-69
2023/09/10 08:38:45;;;;;;;20.90;19.17;;;31.30;92.00;;;;;;4909427;29;20207;-70
2023/09/10 08:41:28;;;;;;;20.53;18.63;;;31.70;91.20;;;;;;4909629;29;20411;-70
2023/09/10 08:43:57;;;;;;;37.47;33.87;;;32.10;88.80;;;;;;4911115;29;20682;-70
2023/09/10 08:46:30;;;;;;;13.43;12.10;;;31.40;91.60;;;;;;4911616;29;20471;-71
2023/09/10 08:48:56;;;;;;;12.47;11.37;;;30.90;91.80;;;;;;4916759;29;20420;-69
2023/09/10 08:51:23;;;;;;;8.27;7.57;;;31.20;91.50;;;;;;4916396;29;20506;-69
2023/09/10 08:53:50;;;;;;;19.70;18.00;;;30.70;92.20;;;;;;4915333;29;20574;-69
2023/09/10 08:56:16;;;;;;;7.40;6.70;;;30.70;92.20;;;;;;4916310;29;20470;-68
2023/09/10 08:58:47;;;;;;;7.13;6.63;;;32.10;90.20;;;;;;4916299;29;20423;-69
2023/09/10 09:01:14;;;;;;;8.13;7.47;;;32.70;88.20;;;;;;4916373;29;20203;-66
2023/09/10 09:03:39;;;;;;;7.63;6.93;;;32.00;90.30;;;;;;4915010;29;20427;-70
2023/09/10 09:06:05;;;;;;;7.03;6.50;;;33.00;87.80;;;;;;4916451;29;20800;-70
2023/09/10 09:08:35;;;;;;;7.20;6.50;;;32.10;87.60;;;;;;4916183;29;20180;-70
2023/09/10 09:11:04;;;;;;;7.37;6.77;;;31.30;90.40;;;;;;4915400;29;20175;-70
2023/09/10 09:13:37;;;;;;;5.70;5.20;;;32.60;88.30;;;;;;4916506;29;20847;-71
2023/09/10 09:16:04;;;;;;;6.30;5.70;;;33.00;82.40;;;;;;4916444;29;20423;-69
2023/09/10 09:18:30;;;;;;;5.63;5.23;;;33.20;78.90;;;;;;4916005;29;20887;-75
2023/09/10 09:21:00;;;;;;;5.80;5.30;;;32.40;82.60;;;;;;4916077;29;20424;-70
2023/09/10 09:23:34;;;;;;;5.77;5.37;;;31.30;83.90;;;;;;4915786;29;20426;-68
2023/09/10 09:26:01;;;;;;;4.97;4.63;;;31.40;84.10;;;;;;4915948;29;21034;-70
2023/09/10 09:28:29;;;;;;;5.73;5.30;;;31.20;85.10;;;;;;4916048;29;20950;-70
2023/09/10 09:30:54;;;;;;;6.23;5.70;;;32.30;84.40;;;;;;4915882;29;20435;-70
2023/09/10 09:33:20;;;;;;;6.80;6.20;;;32.60;83.40;;;;;;4915845;29;20565;-71
2023/09/10 09:35:46;;;;;;;6.10;5.60;;;32.90;83.00;;;;;;4915630;29;20215;-69
2023/09/10 09:38:15;;;;;;;6.57;5.60;;;33.80;78.60;;;;;;4915734;29;20289;-69
2023/09/10 09:40:41;;;;;;;6.50;5.90;;;34.30;76.20;;;;;;4939455;23;20583;-70
2023/09/10 09:43:08;;;;;;;6.53;5.73;;;33.70;76.00;;;;;;4925637;29;20411;-70
2023/09/10 09:45:37;;;;;;;5.37;4.90;;;32.90;77.70;;;;;;4925899;29;20288;-70
2023/09/10 09:48:03;;;;;;;6.40;5.60;;;33.60;76.20;;;;;;4933797;29;20481;-73
2023/09/10 09:50:30;;;;;;;7.60;6.80;;;33.80;74.40;;;;;;4920584;29;20447;-70
2023/09/10 09:52:56;;;;;;;6.00;5.40;;;32.50;72.80;;;;;;4914397;29;20984;-73
2023/09/10 09:55:22;;;;;;;5.43;5.00;;;31.30;78.00;;;;;;4914586;29;20503;-70
2023/09/10 09:57:48;;;;;;;7.20;6.50;;;31.40;77.80;;;;;;4914713;29;20598;-68
2023/09/10 10:00:15;;;;;;;7.37;6.77;;;30.30;79.20;;;;;;4914954;29;20199;-68
2023/09/10 10:02:41;;;;;;;6.67;5.50;;;29.60;81.10;;;;;;4904120;29;20415;-68
2023/09/10 10:05:08;;;;;;;6.57;5.90;;;29.30;82.60;;;;;;4910511;29;20566;-68
2023/09/10 10:07:37;;;;;;;6.03;5.53;;;29.70;82.00;;;;;;4907028;29;20498;-70
2023/09/10 10:10:07;;;;;;;9.80;7.17;;;30.20;80.20;;;;;;4914686;29;20519;-69
2023/09/10 10:12:34;;;;;;;6.87;6.27;;;30.30;81.70;;;;;;4914846;29;20833;-71
2023/09/10 10:15:00;;;;;;;80.03;49.23;;;29.50;82.40;;;;;;4914186;29;20428;-68
2023/09/10 10:17:26;;;;;;;20.10;15.00;;;29.60;84.30;;;;;;4914211;29;20487;-69
2023/09/10 10:19:52;;;;;;;7.07;6.37;;;29.70;82.00;;;;;;4914062;29;20435;-69
2023/09/10 10:22:19;;;;;;;6.83;6.13;;;29.70;82.90;;;;;;4914260;29;20793;-67
2023/09/10 10:24:45;;;;;;;6.60;6.00;;;29.50;83.70;;;;;;4914309;29;20789;-68
2023/09/10 10:27:13;;;;;;;7.97;6.27;;;29.40;81.10;;;;;;4914592;29;20506;-68
2023/09/10 10:29:39;;;;;;;5.90;5.40;;;29.50;82.70;;;;;;4913935;29;20233;-68
2023/09/10 10:32:04;;;;;;;5.30;4.90;;;29.60;83.70;;;;;;4914034;29;20915;-68
2023/09/10 10:34:40;;;;;;;6.77;5.93;;;29.50;85.00;;;;;;4913831;29;20179;-70
2023/09/10 10:37:17;;;;;;;6.40;5.83;;;29.30;83.00;;;;;;4914283;29;20199;-67
2023/09/10 10:39:53;;;;;;;5.80;5.10;;;29.40;83.10;;;;;;4914087;29;20451;-68
2023/09/10 10:42:25;;;;;;;5.80;5.30;;;29.70;81.50;;;;;;4914313;29;20511;-69
2023/09/10 10:44:51;;;;;;;6.10;5.30;;;29.60;83.50;;;;;;4914437;29;20407;-68
2023/09/10 10:47:20;;;;;;;6.37;5.87;;;29.60;82.30;;;;;;4915062;29;20470;-68
2023/09/10 10:49:54;;;;;;;7.30;5.20;;;29.60;83.00;;;;;;4907492;29;20423;-72
2023/09/10 10:52:30;;;;;;;5.83;5.23;;;29.50;82.40;;;;;;4917621;29;20949;-69
2023/09/10 10:54:56;;;;;;;29.00;20.33;;;29.70;80.60;;;;;;4916227;29;20785;-67
2023/09/10 10:57:24;;;;;;;7.40;6.80;;;29.70;80.30;;;;;;4914117;29;20459;-67
2023/09/10 10:59:50;;;;;;;23.10;18.90;;;29.60;78.90;;;;;;4901653;29;20958;-67
2023/09/10 11:02:23;;;;;;;68.03;58.70;;;29.50;80.30;;;;;;4910284;29;20926;-68
2023/09/10 11:04:54;;;;;;;19.63;17.60;;;29.60;80.30;;;;;;4908203;29;20415;-68
2023/09/10 11:07:22;;;;;;;10.93;9.83;;;29.80;78.30;;;;;;4910369;29;20423;-68
2023/09/10 11:09:47;;;;;;;5.47;4.93;;;29.80;77.70;;;;;;4917184;29;20439;-67
2023/09/10 11:12:14;;;;;;;10.53;9.33;;;29.70;78.60;;;;;;4917443;29;20783;-67
2023/09/10 11:15:01;;;;;;;15.00;13.70;;;29.70;80.50;;;;;;4916912;29;20195;-67
2023/09/10 11:17:33;;;;;;;10.23;7.60;;;29.70;80.60;;;;;;4912029;29;20490;-67
2023/09/10 11:19:59;;;;;;;5.40;4.90;;;29.80;78.90;;;;;;4916951;29;20526;-68
2023/09/10 11:22:26;;;;;;;5.77;5.17;;;29.60;79.50;;;;;;4916860;29;20428;-69
2023/09/10 11:25:05;;;;;;;7.53;5.63;;;29.50;79.80;;;;;;4916765;29;20514;-67
2023/09/10 11:27:33;;;;;;;8.40;7.50;;;29.70;79.70;;;;;;4916641;29;20455;-67
2023/09/10 11:30:05;;;;;;;5.93;5.20;;;29.90;80.20;;;;;;4916395;29;20942;-68
2023/09/10 11:32:30;;;;;;;6.07;5.50;;;30.00;78.50;;;;;;4913731;29;20416;-70
2023/09/10 11:35:15;;;;;;;6.43;5.93;;;30.00;77.90;;;;;;4916681;29;20782;-67
2023/09/10 11:37:41;;;;;;;6.13;5.43;;;30.10;78.50;;;;;;4916620;29;20199;-67
2023/09/10 11:40:08;;;;;;;4.87;4.47;;;30.00;78.50;;;;;;4916461;29;20459;-67
2023/09/10 11:42:35;;;;;;;6.50;5.97;;;29.70;78.70;;;;;;4916655;29;20428;-67
2023/09/10 11:45:00;;;;;;;6.37;5.87;;;29.80;79.40;;;;;;4915730;29;20472;-67
2023/09/10 11:47:26;;;;;;;6.13;5.63;;;30.00;79.60;;;;;;4908542;29;20528;-67
2023/09/10 11:50:00;;;;;;;7.40;6.67;;;30.00;78.40;;;;;;4916648;29;20630;-66
2023/09/10 11:52:26;;;;;;;8.67;7.10;;;30.00;78.60;;;;;;4916420;29;20565;-67
2023/09/10 11:54:53;;;;;;;5.87;5.37;;;30.10;79.20;;;;;;4916212;29;20439;-67
2023/09/10 11:57:20;;;;;;;5.53;5.03;;;30.20;78.40;;;;;;4916217;29;20334;-67
2023/09/10 11:59:50;;;;;;;6.10;5.57;;;30.00;78.00;;;;;;4915521;29;20463;-67
2023/09/10 12:02:16;;;;;;;5.47;4.97;;;30.00;77.80;;;;;;4916125;29;20504;-67
2023/09/10 12:04:42;;;;;;;6.63;5.97;;;30.10;78.10;;;;;;4908154;29;20810;-67
2023/09/10 12:07:07;;;;;;;4.80;4.40;;;29.90;76.50;;;;;;4913741;29;20428;-67
2023/09/10 12:09:33;;;;;;;5.53;5.03;;;29.80;76.10;;;;;;4915595;29;20206;-67
2023/09/10 12:12:10;;;;;;;5.17;4.67;;;29.70;77.30;;;;;;4915765;29;20172;-66
2023/09/10 12:14:37;;;;;;;6.17;5.67;;;29.60;79.00;;;;;;4915965;29;20186;-68
2023/09/10 12:17:03;;;;;;;6.20;5.33;;;29.70;78.80;;;;;;4915812;29;20926;-68
2023/09/10 12:19:29;;;;;;;5.97;4.73;;;29.70;77.30;;;;;;4915882;29;20680;-68
2023/09/10 12:21:55;;;;;;;5.70;5.10;;;29.70;77.50;;;;;;4911703;29;20630;-68
2023/09/10 12:24:21;;;;;;;5.00;4.60;;;29.50;77.40;;;;;;4912063;29;20247;-67
2023/09/10 12:26:47;;;;;;;5.13;4.70;;;29.70;78.30;;;;;;4915532;29;20415;-69
2023/09/10 12:29:13;;;;;;;4.90;4.40;;;29.70;77.50;;;;;;4915396;29;20442;-67
2023/09/10 12:31:39;;;;;;;4.70;4.30;;;29.70;75.80;;;;;;4915387;29;20176;-70